createdAt,value
2022-10-15T00:00:41.063Z,83.60
2022-10-15T00:03:08.042Z,87.47
2022-10-15T00:05:38.410Z,87.50
2022-10-15T00:08:06.344Z,84.70
2022-10-15T00:10:33.170Z,82.85
2022-10-15T00:13:00.296Z,86.88
2022-10-15T00:15:27.652Z,82.38
2022-10-15T00:17:54.451Z,80.40
2022-10-15T00:20:21.909Z,83.07
2022-10-15T00:22:48.703Z,84.10
2022-10-15T00:25:15.508Z,84.28
2022-10-15T00:27:42.256Z,86.35
2022-10-15T00:30:09.628Z,86.85
2022-10-15T00:32:36.458Z,87.43
2022-10-15T00:35:03.627Z,91.93
2022-10-15T00:37:30.343Z,93.57
2022-10-15T00:39:57.191Z,85.50
2022-10-15T00:42:24.422Z,83.03
2022-10-15T00:44:55.168Z,79.43
2022-10-15T00:47:39.992Z,93.13
2022-10-15T00:50:14.395Z,83.80
2022-10-15T00:52:58.998Z,83.65
2022-10-15T00:55:39.173Z,85.22
2022-10-15T01:00:39.372Z,87.90
2022-10-15T01:03:06.159Z,86.22
2022-10-15T01:05:34.746Z,85.80
2022-10-15T01:08:01.480Z,84.53
2022-10-15T01:10:44.229Z,90.38
2022-10-15T01:13:44.526Z,80.38
2022-10-15T01:16:30.894Z,88.25
2022-10-15T01:19:30.475Z,77.35
2022-10-15T01:21:57.192Z,81.20
2022-10-15T01:24:53.942Z,85.85
2022-10-15T01:27:35.598Z,89.85
2022-10-15T01:30:21.346Z,92.57
2022-10-15T01:33:24.106Z,88.38
2022-10-15T01:36:03.964Z,92.28
2022-10-15T01:38:45.721Z,88.10
2022-10-15T01:41:20.188Z,83.03
2022-10-15T01:44:17.723Z,82.82
2022-10-15T01:46:59.493Z,84.40
2022-10-15T01:49:30.333Z,90.20
2022-10-15T01:52:00.222Z,82.53
2022-10-15T01:54:28.545Z,86.57
2022-10-15T01:56:57.196Z,84.68
2022-10-15T01:59:28.810Z,89.63
2022-10-15T02:01:57.912Z,77.85
2022-10-15T02:04:28.290Z,81.88
2022-10-15T02:07:07.011Z,85.15
2022-10-15T02:09:42.644Z,85.97
2022-10-15T02:12:15.457Z,95.35
2022-10-15T02:15:01.744Z,86.07
2022-10-15T02:17:57.459Z,88.70
2022-10-15T02:20:30.735Z,94.78
2022-10-15T02:23:06.233Z,83.88
2022-10-15T02:25:35.213Z,90.75
2022-10-15T02:28:03.705Z,91.90
2022-10-15T02:30:32.621Z,90.07
2022-10-15T02:33:00.270Z,93.18
2022-10-15T02:35:28.276Z,96.95
2022-10-15T02:37:58.161Z,92.80
2022-10-15T02:40:31.129Z,104.05
2022-10-15T02:42:58.039Z,95.47
2022-10-15T02:45:24.800Z,94.82
2022-10-15T02:47:51.628Z,101.82
2022-10-15T02:50:18.372Z,97.43
2022-10-15T02:52:45.329Z,96.85
2022-10-15T02:55:12.248Z,98.00
2022-10-15T02:57:39.008Z,94.65
2022-10-15T03:00:06.435Z,106.72
2022-10-15T03:02:33.180Z,90.90
2022-10-15T03:04:59.939Z,95.25
2022-10-15T03:07:26.812Z,93.07
2022-10-15T03:09:53.719Z,93.53
2022-10-15T03:12:23.254Z,99.60
2022-10-15T03:14:50.213Z,102.78
2022-10-15T03:17:16.901Z,102.90
2022-10-15T03:19:43.981Z,106.07
2022-10-15T03:22:11.158Z,99.90
2022-10-15T03:24:38.055Z,103.13
2022-10-15T03:27:04.833Z,105.07
2022-10-15T03:29:31.595Z,99.95
2022-10-15T03:31:58.317Z,102.28
2022-10-15T03:34:25.208Z,102.78
2022-10-15T03:36:51.967Z,103.97
2022-10-15T03:39:18.715Z,99.95
2022-10-15T03:41:45.661Z,102.03
2022-10-15T03:44:12.421Z,103.60
2022-10-15T03:46:39.241Z,92.90
2022-10-15T03:49:06.132Z,95.40
2022-10-15T03:51:32.941Z,96.97
2022-10-15T03:53:59.724Z,100.68
2022-10-15T03:56:26.512Z,100.03
2022-10-15T03:58:53.292Z,98.93
2022-10-15T04:01:20.225Z,103.80
2022-10-15T04:03:47.196Z,101.45
2022-10-15T04:06:14.079Z,94.30
2022-10-15T04:08:40.872Z,98.30
2022-10-15T04:11:07.774Z,104.68
2022-10-15T04:13:34.504Z,100.15
2022-10-15T04:16:03.837Z,103.20
2022-10-15T04:18:30.686Z,104.03
2022-10-15T04:21:01.264Z,107.22
2022-10-15T04:23:28.408Z,109.68
2022-10-15T04:25:59.398Z,99.95
2022-10-15T04:28:26.198Z,100.53
2022-10-15T04:30:59.433Z,102.65
2022-10-15T04:33:26.847Z,97.65
2022-10-15T04:36:01.747Z,96.30
2022-10-15T04:38:28.727Z,101.95
2022-10-15T04:41:07.136Z,96.93
2022-10-15T04:43:34.723Z,111.28
2022-10-15T04:46:02.948Z,104.95
2022-10-15T04:48:31.481Z,103.93
2022-10-15T04:51:15.907Z,103.05
2022-10-15T04:53:42.977Z,103.43
2022-10-15T04:56:15.886Z,108.13
2022-10-15T04:58:43.814Z,99.97
2022-10-15T05:01:13.990Z,100.88
2022-10-15T05:03:45.041Z,97.10
2022-10-15T05:06:15.604Z,101.93
2022-10-15T05:08:43.370Z,97.32
2022-10-15T05:11:13.713Z,103.97
2022-10-15T05:13:40.566Z,99.07
2022-10-15T05:16:20.459Z,103.53
2022-10-15T05:18:52.988Z,108.68
2022-10-15T05:21:20.127Z,102.57
2022-10-15T05:23:47.906Z,102.93
2022-10-15T05:26:17.391Z,106.85
2022-10-15T05:28:44.253Z,102.68
2022-10-15T05:31:18.327Z,99.40
2022-10-15T05:33:45.469Z,96.60
2022-10-15T05:36:21.778Z,93.60
2022-10-15T05:38:51.180Z,97.78
2022-10-15T05:41:18.635Z,94.03
2022-10-15T05:43:49.851Z,106.18
2022-10-15T05:46:18.041Z,105.65
2022-10-15T05:48:52.807Z,105.82
2022-10-15T05:51:19.905Z,102.70
2022-10-15T05:53:46.755Z,99.85
2022-10-15T05:56:15.428Z,99.63
2022-10-15T05:58:42.458Z,96.93
2022-10-15T06:01:11.741Z,103.05
2022-10-15T06:03:39.963Z,105.18
2022-10-15T06:06:21.286Z,98.25
2022-10-15T06:08:48.752Z,108.82
2022-10-15T06:11:16.309Z,99.57
2022-10-15T06:13:44.106Z,101.32
2022-10-15T06:16:12.532Z,101.95
2022-10-15T06:18:40.135Z,101.88
2022-10-15T06:21:08.165Z,96.28
2022-10-15T06:23:35.575Z,99.03
2022-10-15T06:26:07.704Z,90.75
2022-10-15T06:28:35.138Z,94.63
2022-10-15T06:31:02.406Z,109.30
2022-10-15T06:33:30.049Z,103.85
2022-10-15T06:36:01.917Z,99.25
2022-10-15T06:40:55.688Z,100.18
2022-10-15T06:43:22.618Z,96.68
2022-10-15T06:45:49.435Z,96.88
2022-10-15T06:48:16.178Z,88.35
2022-10-15T06:50:42.909Z,92.03
2022-10-15T06:53:09.683Z,91.55
2022-10-15T06:55:36.688Z,87.50
2022-10-15T06:58:03.441Z,90.50
2022-10-15T07:00:30.410Z,92.57
2022-10-15T07:02:57.224Z,91.15
2022-10-15T07:05:23.993Z,88.25
2022-10-15T07:07:55.177Z,87.88
2022-10-15T07:10:22.931Z,92.47
2022-10-15T07:12:49.812Z,83.60
2022-10-15T07:15:17.129Z,85.63
2022-10-15T07:17:48.624Z,83.07
2022-10-15T07:20:20.149Z,90.95
2022-10-15T07:22:50.234Z,90.05
2022-10-15T07:25:17.074Z,87.53
2022-10-15T07:27:43.815Z,89.22
2022-10-15T07:30:11.110Z,88.25
2022-10-15T07:32:38.126Z,89.03
2022-10-15T07:35:05.372Z,86.88
2022-10-15T07:37:32.791Z,86.47
2022-10-15T07:39:59.600Z,83.97
2022-10-15T07:42:27.067Z,88.38
2022-10-15T07:44:53.875Z,96.40
2022-10-15T07:47:21.008Z,86.25
2022-10-15T07:49:47.903Z,80.88
2022-10-15T07:52:14.736Z,78.95
2022-10-15T07:54:41.568Z,81.97
2022-10-15T07:57:09.125Z,77.75
2022-10-15T07:59:36.286Z,86.15
2022-10-15T08:02:03.069Z,87.70
2022-10-15T08:04:30.006Z,77.70
2022-10-15T08:07:01.819Z,69.97
2022-10-15T08:09:28.844Z,75.15
2022-10-15T08:11:55.712Z,79.82
2022-10-15T08:14:22.568Z,77.32
2022-10-15T08:16:49.601Z,73.50
2022-10-15T08:19:17.806Z,75.97
2022-10-15T08:21:47.434Z,80.25
2022-10-15T08:24:14.408Z,86.20
2022-10-15T08:26:41.287Z,77.80
2022-10-15T08:29:08.175Z,75.78
2022-10-15T08:31:35.336Z,78.35
2022-10-15T08:34:03.150Z,78.15
2022-10-15T08:36:29.973Z,75.88
2022-10-15T08:38:56.886Z,75.20
2022-10-15T08:41:36.321Z,78.80
2022-10-15T08:44:04.007Z,75.32
2022-10-15T08:46:39.403Z,74.97
2022-10-15T08:49:14.321Z,84.60
2022-10-15T08:51:48.255Z,76.40
2022-10-15T08:54:17.898Z,75.47
2022-10-15T08:56:49.182Z,81.13
2022-10-15T08:59:49.543Z,83.65
2022-10-15T09:02:38.967Z,72.70
2022-10-15T09:05:26.026Z,83.03
2022-10-15T09:07:55.527Z,81.60
2022-10-15T09:10:47.998Z,83.30
2022-10-15T09:13:22.815Z,81.65
2022-10-15T09:15:57.159Z,89.80
2022-10-15T09:18:27.540Z,77.97
2022-10-15T09:20:54.865Z,80.57
2022-10-15T09:23:25.589Z,77.45
2022-10-15T09:26:14.952Z,80.30
2022-10-15T09:29:26.052Z,82.82
2022-10-15T09:32:01.474Z,78.45
2022-10-15T09:34:40.599Z,78.20
2022-10-15T09:37:19.285Z,86.78
2022-10-15T09:40:15.492Z,84.20
2022-10-15T09:42:44.944Z,83.03
2022-10-15T09:45:15.578Z,80.35
2022-10-15T09:47:43.695Z,77.72
2022-10-15T09:50:13.112Z,72.90
2022-10-15T09:53:00.983Z,74.82
2022-10-15T09:55:49.258Z,81.18
2022-10-15T09:58:25.185Z,82.47
2022-10-15T10:01:02.536Z,78.68
2022-10-15T10:03:31.913Z,80.40
2022-10-15T10:06:10.863Z,75.30
2022-10-15T10:08:57.746Z,76.20
2022-10-15T10:11:26.730Z,80.30
2022-10-15T10:14:01.114Z,82.97
2022-10-15T10:16:30.077Z,78.57
2022-10-15T10:19:15.277Z,76.68
2022-10-15T10:21:43.377Z,86.15
2022-10-15T10:24:28.596Z,82.70
2022-10-15T10:26:55.848Z,80.32
2022-10-15T10:29:36.786Z,76.82
2022-10-15T10:32:31.580Z,80.82
2022-10-15T10:35:00.919Z,79.13
2022-10-15T10:37:28.808Z,77.30
2022-10-15T10:40:00.781Z,76.85
2022-10-15T10:42:33.153Z,70.32
2022-10-15T10:45:23.172Z,79.82
2022-10-15T10:47:50.409Z,89.90
2022-10-15T10:50:30.147Z,76.93
2022-10-15T10:52:59.993Z,75.28
2022-10-15T10:55:37.515Z,80.80
2022-10-15T10:58:04.774Z,81.78
2022-10-15T11:00:42.534Z,77.93
2022-10-15T11:03:36.869Z,79.65
2022-10-15T11:06:23.257Z,82.47
2022-10-15T11:09:02.093Z,82.88
2022-10-15T11:11:57.972Z,78.40
2022-10-15T11:15:12.141Z,83.22
2022-10-15T11:18:02.586Z,83.38
2022-10-15T11:21:13.817Z,81.40
2022-10-15T11:24:09.883Z,90.33
2022-10-15T11:26:59.187Z,77.65
2022-10-15T11:29:41.852Z,82.95
2022-10-15T11:32:25.291Z,89.20
2022-10-15T11:34:58.563Z,78.80
2022-10-15T11:37:43.754Z,91.28
2022-10-15T11:40:20.386Z,83.22
2022-10-15T11:43:00.158Z,81.63
2022-10-15T11:45:39.659Z,83.70
2022-10-15T11:48:16.112Z,80.68
2022-10-15T11:50:57.644Z,80.53
2022-10-15T11:53:33.035Z,86.68
2022-10-15T11:56:15.676Z,83.28
2022-10-15T11:58:55.783Z,84.18
2022-10-15T12:01:35.966Z,86.35
2022-10-15T12:04:22.436Z,81.95
2022-10-15T12:06:52.808Z,82.07
2022-10-15T12:09:26.082Z,87.75
2022-10-15T12:12:04.301Z,81.35
2022-10-15T12:14:55.532Z,84.40
2022-10-15T12:17:34.319Z,87.50
2022-10-15T12:20:11.954Z,77.63
2022-10-15T12:22:40.518Z,83.53
2022-10-15T12:25:36.455Z,82.40
2022-10-15T12:28:25.870Z,84.78
2022-10-15T12:31:06.411Z,81.35
2022-10-15T12:33:45.113Z,84.00
2022-10-15T12:36:30.499Z,80.38
2022-10-15T12:39:16.045Z,80.15
2022-10-15T12:41:54.248Z,74.47
2022-10-15T12:44:34.911Z,84.82
2022-10-15T12:47:01.740Z,73.78
2022-10-15T12:49:32.065Z,71.88
2022-10-15T12:52:00.357Z,75.78
2022-10-15T12:54:44.690Z,76.13
2022-10-15T12:57:30.452Z,85.93
2022-10-15T12:59:59.352Z,75.03
2022-10-15T13:02:32.350Z,68.82
2022-10-15T13:04:59.188Z,74.90
2022-10-15T13:07:26.515Z,72.82
2022-10-15T13:09:53.864Z,71.32
2022-10-15T13:12:27.351Z,70.43
2022-10-15T13:15:04.150Z,76.70
2022-10-15T13:17:33.754Z,72.25
2022-10-15T13:20:11.140Z,70.60
2022-10-15T13:22:37.949Z,70.50
2022-10-15T13:25:05.114Z,67.88
2022-10-15T13:27:35.614Z,65.47
2022-10-15T13:30:16.518Z,74.47
2022-10-15T13:32:55.914Z,73.85
2022-10-15T13:35:29.091Z,75.60
2022-10-15T13:37:57.506Z,71.18
2022-10-15T13:40:30.263Z,74.03
2022-10-15T13:43:08.522Z,68.82
2022-10-15T13:45:35.385Z,71.43
2022-10-15T13:48:02.159Z,75.00
2022-10-15T13:50:31.851Z,73.88
2022-10-15T13:53:20.256Z,68.25
2022-10-15T13:55:52.628Z,69.63
2022-10-15T13:58:23.559Z,73.57
2022-10-15T14:01:09.197Z,68.57
2022-10-15T14:03:38.725Z,67.70
2022-10-15T14:06:26.810Z,65.85
2022-10-15T14:08:59.907Z,62.35
2022-10-15T14:11:28.597Z,67.93
2022-10-15T14:13:58.199Z,71.32
2022-10-15T14:16:33.201Z,71.93
2022-10-15T14:19:11.077Z,65.60
2022-10-15T14:21:44.632Z,66.35
2022-10-15T14:24:14.117Z,70.28
2022-10-15T14:26:41.724Z,67.25
2022-10-15T14:29:19.367Z,72.70
2022-10-15T14:31:48.932Z,63.67
2022-10-15T14:34:45.331Z,62.92
2022-10-15T14:37:37.250Z,71.85
2022-10-15T14:40:13.066Z,65.00
2022-10-15T14:43:07.767Z,65.88
2022-10-15T14:45:43.855Z,69.60
2022-10-15T14:48:18.111Z,70.63
2022-10-15T14:50:44.950Z,71.07
2022-10-15T14:53:19.175Z,74.63
2022-10-15T14:55:53.379Z,63.80
2022-10-15T14:58:22.387Z,66.88
2022-10-15T15:00:57.049Z,61.10
2022-10-15T15:03:29.378Z,69.75
2022-10-15T15:05:57.521Z,71.57
2022-10-15T15:08:25.796Z,70.97
2022-10-15T15:10:55.394Z,73.00
2022-10-15T15:13:27.950Z,66.22
2022-10-15T15:15:55.102Z,65.82
2022-10-15T15:18:21.961Z,70.45
2022-10-15T15:20:50.494Z,70.25
2022-10-15T15:23:23.822Z,73.55
2022-10-15T15:25:51.483Z,71.55
2022-10-15T15:28:24.173Z,67.72
2022-10-15T15:31:06.323Z,65.82
2022-10-15T15:33:33.862Z,71.43
2022-10-15T15:36:11.854Z,71.78
2022-10-15T15:38:38.913Z,67.15
2022-10-15T15:41:15.059Z,69.65
2022-10-15T15:43:42.431Z,66.90
2022-10-15T15:46:09.614Z,69.53
2022-10-15T15:48:36.750Z,73.00
2022-10-15T15:51:06.864Z,64.13
2022-10-15T15:53:33.801Z,68.43
2022-10-15T15:56:00.494Z,75.97
2022-10-15T15:58:27.510Z,69.78
2022-10-15T16:00:54.232Z,71.32
2022-10-15T16:03:21.014Z,72.57
2022-10-15T16:08:21.764Z,71.38
2022-10-15T16:10:48.555Z,73.63
2022-10-15T16:13:15.312Z,71.97
2022-10-15T16:15:42.098Z,72.13
2022-10-15T16:18:09.319Z,72.40
2022-10-15T16:20:39.500Z,62.92
2022-10-15T16:23:06.307Z,76.07
2022-10-15T16:25:33.136Z,76.93
2022-10-15T16:28:01.885Z,68.55
2022-10-15T16:30:29.412Z,74.57
2022-10-15T16:32:56.200Z,71.25
2022-10-15T16:35:23.341Z,73.47
2022-10-15T16:37:52.641Z,71.50
2022-10-15T16:40:19.543Z,74.75
2022-10-15T16:42:46.269Z,69.22
2022-10-15T16:45:13.022Z,70.47
2022-10-15T16:47:39.773Z,81.70
2022-10-15T16:50:07.357Z,73.10
2022-10-15T16:52:34.869Z,73.75
2022-10-15T16:55:01.595Z,72.40
2022-10-15T16:57:28.422Z,78.57
2022-10-15T16:59:55.726Z,75.00
2022-10-15T17:02:22.873Z,76.90
2022-10-15T17:04:49.874Z,77.63
2022-10-15T17:07:17.343Z,78.68
2022-10-15T17:09:45.101Z,72.25
2022-10-15T17:12:12.214Z,70.72
2022-10-15T17:14:39.019Z,77.90
2022-10-15T17:17:07.681Z,72.55
2022-10-15T17:19:35.138Z,72.60
2022-10-15T17:22:01.942Z,72.18
2022-10-15T17:24:28.752Z,61.75
2022-10-15T17:26:57.859Z,64.80
2022-10-15T17:29:27.853Z,60.90
2022-10-15T17:31:57.593Z,66.82
2022-10-15T17:34:25.840Z,66.22
2022-10-15T17:36:53.946Z,66.00
2022-10-15T17:39:22.473Z,66.50
2022-10-15T17:41:51.053Z,67.85
2022-10-15T17:44:17.831Z,69.40
2022-10-15T17:46:44.682Z,69.60
2022-10-15T17:49:11.711Z,69.10
2022-10-15T17:51:38.733Z,67.93
2022-10-15T17:54:05.879Z,65.68
2022-10-15T17:56:35.280Z,63.38
2022-10-15T17:59:05.000Z,60.10
2022-10-15T18:04:24.280Z,59.15
2022-10-15T18:06:51.048Z,68.28
2022-10-15T18:09:17.847Z,67.68
2022-10-15T18:11:46.498Z,68.00
2022-10-15T18:14:13.390Z,86.00
2022-10-15T18:16:40.216Z,80.60
2022-10-15T18:19:06.922Z,70.13
2022-10-15T18:21:33.662Z,60.60
2022-10-15T18:24:00.427Z,60.50
2022-10-15T18:26:27.213Z,63.08
2022-10-15T18:28:54.657Z,60.55
2022-10-15T18:31:22.442Z,62.88
2022-10-15T18:33:55.529Z,61.88
2022-10-15T18:36:28.368Z,63.10
2022-10-15T18:38:56.060Z,69.10
2022-10-15T18:41:33.432Z,54.45
2022-10-15T18:44:03.183Z,59.92
2022-10-15T18:46:31.180Z,60.70
2022-10-15T18:48:58.594Z,55.13
2022-10-15T18:51:25.568Z,61.22
2022-10-15T18:53:53.257Z,56.67
2022-10-15T18:56:21.180Z,57.95
2022-10-15T18:58:48.233Z,63.45
2022-10-15T19:01:30.247Z,58.83
2022-10-15T19:03:59.457Z,55.17
2022-10-15T19:06:30.036Z,57.22
2022-10-15T19:09:00.816Z,55.88
2022-10-15T19:11:27.661Z,59.65
2022-10-15T19:13:57.313Z,54.35
2022-10-15T19:16:24.303Z,55.22
2022-10-15T19:18:51.073Z,51.95
2022-10-15T19:21:18.496Z,54.83
2022-10-15T19:23:45.336Z,57.17
2022-10-15T19:26:13.111Z,54.70
2022-10-15T19:28:40.028Z,54.47
2022-10-15T19:31:09.102Z,57.58
2022-10-15T19:33:36.377Z,56.70
2022-10-15T19:36:03.930Z,57.95
2022-10-15T19:38:30.893Z,56.92
2022-10-15T19:41:01.361Z,59.22
2022-10-15T19:43:28.102Z,60.05
2022-10-15T19:45:54.803Z,58.38
2022-10-15T19:48:22.986Z,62.75
2022-10-15T19:50:49.895Z,61.80
2022-10-15T19:53:17.578Z,60.05
2022-10-15T19:55:58.794Z,61.88
2022-10-15T19:58:26.167Z,63.08
2022-10-15T20:00:53.638Z,62.35
2022-10-15T20:03:21.731Z,66.50
2022-10-15T20:05:49.077Z,59.65
2022-10-15T20:08:16.492Z,59.22
2022-10-15T20:10:44.500Z,64.95
2022-10-15T20:13:11.990Z,63.70
2022-10-15T20:15:43.491Z,63.38
2022-10-15T20:18:10.796Z,64.03
2022-10-15T20:20:40.030Z,69.65
2022-10-15T20:23:07.139Z,66.68
2022-10-15T20:25:33.929Z,67.00
2022-10-15T20:28:00.700Z,65.40
2022-10-15T20:30:27.598Z,66.18
2022-10-15T20:32:54.330Z,68.80
2022-10-15T20:35:21.099Z,67.05
2022-10-15T20:37:47.916Z,77.03
2022-10-15T20:40:15.291Z,71.97
2022-10-15T20:42:42.052Z,66.05
2022-10-15T20:45:14.301Z,64.30
2022-10-15T20:47:46.731Z,71.20
2022-10-15T20:50:22.453Z,73.70
2022-10-15T20:52:49.435Z,62.90
2022-10-15T20:55:16.290Z,67.10
2022-10-15T20:57:43.420Z,73.90
2022-10-15T21:00:10.748Z,61.28
2022-10-15T21:02:37.502Z,69.30
2022-10-15T21:05:04.616Z,68.50
2022-10-15T21:07:31.373Z,64.25
2022-10-15T21:09:58.757Z,69.43
2022-10-15T21:12:26.345Z,70.65
2022-10-15T21:14:53.374Z,67.18
2022-10-15T21:17:20.220Z,69.05
2022-10-15T21:19:50.353Z,66.28
2022-10-15T21:22:19.563Z,73.72
2022-10-15T21:24:46.299Z,60.75
2022-10-15T21:27:13.032Z,62.60
2022-10-15T21:29:39.858Z,64.65
2022-10-15T21:32:06.580Z,70.97
2022-10-15T21:34:33.360Z,66.32
2022-10-15T21:37:00.115Z,62.47
2022-10-15T21:39:26.945Z,60.10
2022-10-15T21:41:53.728Z,66.95
2022-10-15T21:44:20.590Z,61.00
2022-10-15T21:46:47.359Z,63.67
2022-10-15T21:49:14.151Z,77.03
2022-10-15T21:51:41.089Z,66.50
2022-10-15T21:54:08.067Z,70.18
2022-10-15T21:56:35.241Z,71.00
2022-10-15T21:59:02.249Z,65.93
2022-10-15T22:01:34.258Z,68.22
2022-10-15T22:04:07.529Z,69.47
2022-10-15T22:06:35.464Z,60.50
2022-10-15T22:09:03.870Z,65.82
2022-10-15T22:11:33.166Z,62.40
2022-10-15T22:14:03.476Z,63.42
2022-10-15T22:16:32.811Z,72.65
2022-10-15T22:18:59.561Z,62.20
2022-10-15T22:21:28.913Z,62.38
2022-10-15T22:23:58.820Z,66.50
2022-10-15T22:26:31.332Z,70.57
2022-10-15T22:29:00.336Z,68.38
2022-10-15T22:31:28.452Z,62.53
2022-10-15T22:33:55.515Z,67.38
2022-10-15T22:36:26.016Z,71.30
2022-10-15T22:41:22.955Z,66.90
2022-10-15T22:43:50.193Z,58.65
2022-10-15T22:46:17.066Z,63.30
2022-10-15T22:48:44.015Z,59.78
2022-10-15T22:51:12.677Z,71.22
2022-10-15T22:53:40.070Z,66.72
2022-10-15T22:56:16.073Z,65.38
2022-10-15T22:58:43.569Z,63.47
2022-10-15T23:01:25.292Z,64.50
2022-10-15T23:03:54.280Z,65.70
2022-10-15T23:06:22.598Z,66.65
2022-10-15T23:08:50.096Z,62.30
2022-10-15T23:11:20.512Z,67.20
2022-10-15T23:13:51.745Z,64.45
2022-10-15T23:16:21.684Z,66.22
2022-10-15T23:18:56.380Z,67.78
2022-10-15T23:21:40.712Z,69.15
2022-10-15T23:24:07.664Z,70.40
2022-10-15T23:26:35.094Z,68.78
2022-10-15T23:29:05.092Z,66.72
2022-10-15T23:31:34.573Z,68.22
2022-10-15T23:34:02.887Z,69.28
2022-10-15T23:36:30.791Z,63.42
2022-10-15T23:39:00.035Z,67.57
2022-10-15T23:41:28.268Z,69.78
2022-10-15T23:43:55.148Z,69.25
2022-10-15T23:46:22.471Z,73.45
2022-10-15T23:48:49.281Z,74.47
2022-10-15T23:51:20.560Z,75.28
2022-10-15T23:53:48.305Z,65.32
2022-10-15T23:56:15.572Z,70.78
2022-10-15T23:58:42.723Z,72.50
